Time;durP1;ratioP1;P1;durP2;ratioP2;P2;SDS_P1;SDS_P2;PMS_P1;PMS_P2;Temp;Humidity;BMP_temperature;BMP_pressure;BME280_temperature;BME280_humidity;BME280_pressure;Samples;Min_cycle;Max_cycle;Signal;HPM_P1;HPM_P2
2022/01/05 00:00:33;;;;;;;18.75;6.72;;;5.70;99.90;;;;;;5032876;28;20479;-80
2022/01/05 00:02:58;;;;;;;22.10;10.10;;;5.60;99.90;;;;;;5033450;28;20084;-81
2022/01/05 00:05:24;;;;;;;21.13;9.70;;;5.70;99.90;;;;;;5032372;28;20121;-81
2022/01/05 00:07:50;;;;;;;24.77;11.23;;;5.60;99.90;;;;;;5033092;28;20035;-80
2022/01/05 00:10:16;;;;;;;19.48;10.50;;;5.60;99.90;;;;;;5032926;28;20036;-80
2022/01/05 00:12:41;;;;;;;55.35;22.58;;;5.60;99.90;;;;;;5032822;28;20067;-80
2022/01/05 00:15:08;;;;;;;49.83;19.50;;;5.60;99.90;;;;;;5032997;28;20060;-80
2022/01/05 00:17:33;;;;;;;34.33;14.73;;;5.50;99.90;;;;;;5034152;28;20025;-80
2022/01/05 00:19:59;;;;;;;114.65;51.75;;;5.50;99.90;;;;;;5033795;28;20493;-80
2022/01/05 00:22:25;;;;;;;91.78;45.88;;;5.40;99.90;;;;;;5034098;28;20021;-81
2022/01/05 00:24:50;;;;;;;39.35;21.80;;;5.40;99.90;;;;;;5025477;28;20033;-80
2022/01/05 00:27:16;;;;;;;119.25;65.72;;;5.40;99.90;;;;;;5054121;28;20380;-80
2022/01/05 00:29:41;;;;;;;50.45;29.48;;;5.30;99.90;;;;;;5035820;28;20047;-80
2022/01/05 00:32:08;;;;;;;59.35;26.15;;;5.30;99.90;;;;;;5036274;28;20033;-81
2022/01/05 00:34:34;;;;;;;43.90;20.25;;;5.30;99.90;;;;;;5053075;28;20052;-80
2022/01/05 00:37:00;;;;;;;44.55;18.17;;;5.30;99.90;;;;;;5053505;28;20052;-79
2022/01/05 00:39:26;;;;;;;49.30;20.52;;;5.30;99.90;;;;;;5030334;28;20502;-80
2022/01/05 00:41:51;;;;;;;51.60;23.67;;;5.20;99.90;;;;;;5016404;28;20691;-80
2022/01/05 00:44:18;;;;;;;42.58;17.67;;;5.30;99.90;;;;;;5034163;28;20025;-80
2022/01/05 00:46:45;;;;;;;68.60;27.10;;;5.20;99.90;;;;;;5016539;28;20120;-80
2022/01/05 00:49:12;;;;;;;25.50;12.63;;;5.20;99.90;;;;;;5016607;28;20041;-80
2022/01/05 00:51:38;;;;;;;11.38;8.05;;;5.20;99.90;;;;;;5016419;28;20502;-80
2022/01/05 00:54:04;;;;;;;13.50;8.70;;;5.10;99.90;;;;;;5016446;28;20052;-79
2022/01/05 00:56:30;;;;;;;13.65;8.18;;;5.10;99.90;;;;;;5016388;28;20045;-80
2022/01/05 00:58:55;;;;;;;13.60;7.68;;;5.10;99.90;;;;;;5034093;28;20079;-80
2022/01/05 01:01:21;;;;;;;10.40;6.97;;;5.10;99.90;;;;;;5016270;28;20368;-80
2022/01/05 01:03:46;;;;;;;11.63;6.82;;;5.10;99.90;;;;;;5016227;28;20025;-80
2022/01/05 01:06:12;;;;;;;9.90;6.45;;;5.10;99.90;;;;;;5032919;28;20521;-80
2022/01/05 01:08:38;;;;;;;9.48;6.00;;;5.10;99.90;;;;;;5016098;28;20079;-80
2022/01/05 01:11:03;;;;;;;8.88;6.78;;;5.10;99.90;;;;;;5033892;28;20033;-80
2022/01/05 01:13:29;;;;;;;12.77;7.70;;;5.10;99.90;;;;;;5033810;28;20029;-80
2022/01/05 01:15:55;;;;;;;11.75;6.95;;;5.10;99.90;;;;;;5016030;28;20053;-80
2022/01/05 01:18:21;;;;;;;10.98;6.63;;;5.10;99.90;;;;;;5016083;28;20021;-80
2022/01/05 01:20:47;;;;;;;9.57;7.03;;;5.10;99.90;;;;;;5033677;28;20029;-80
2022/01/05 01:23:14;;;;;;;15.38;7.25;;;5.10;99.90;;;;;;5015911;28;20033;-80
2022/01/05 01:25:40;;;;;;;11.57;7.18;;;5.10;99.90;;;;;;5015749;28;20498;-80
2022/01/05 01:28:06;;;;;;;10.65;6.93;;;5.10;99.90;;;;;;5015796;28;20029;-80
2022/01/05 01:30:33;;;;;;;14.13;8.27;;;5.10;99.90;;;;;;5033468;28;20541;-80
2022/01/05 01:32:59;;;;;;;10.63;7.70;;;5.00;99.90;;;;;;5033738;28;20048;-81
2022/01/05 01:35:25;;;;;;;10.82;6.72;;;5.00;99.90;;;;;;5015607;28;20025;-81
2022/01/05 01:37:53;;;;;;;10.75;7.43;;;5.10;99.90;;;;;;5033385;28;20026;-80
2022/01/05 01:40:19;;;;;;;9.45;6.35;;;5.00;99.90;;;;;;5015590;28;20108;-80
2022/01/05 01:42:45;;;;;;;9.30;6.72;;;5.00;99.90;;;;;;5015483;28;20030;-80
2022/01/05 01:45:11;;;;;;;9.73;6.45;;;5.00;99.90;;;;;;5033164;28;20380;-80
2022/01/05 01:47:37;;;;;;;10.30;6.97;;;5.00;99.90;;;;;;5015323;28;20026;-80
2022/01/05 01:50:02;;;;;;;12.90;7.68;;;5.00;99.90;;;;;;5015404;28;20076;-80
2022/01/05 01:52:28;;;;;;;10.77;6.75;;;5.00;99.90;;;;;;5015365;28;20021;-80
2022/01/05 01:54:54;;;;;;;13.27;7.45;;;4.90;99.90;;;;;;5033065;28;20025;-80
2022/01/05 01:57:21;;;;;;;13.48;9.30;;;4.90;99.90;;;;;;5032999;28;20021;-80
2022/01/05 01:59:48;;;;;;;16.17;8.57;;;4.90;99.90;;;;;;5015106;28;20021;-80
2022/01/05 02:02:16;;;;;;;14.65;9.65;;;4.90;99.90;;;;;;5033004;28;20037;-80
2022/01/05 02:04:43;;;;;;;13.98;8.02;;;4.90;99.90;;;;;;5015314;28;20022;-80
2022/01/05 02:07:09;;;;;;;16.75;9.60;;;4.90;99.90;;;;;;5032619;28;20083;-80
2022/01/05 02:09:36;;;;;;;14.27;9.68;;;4.90;99.90;;;;;;5032708;28;20022;-80
2022/01/05 02:12:03;;;;;;;13.43;9.00;;;4.90;99.90;;;;;;5032863;28;20026;-81
2022/01/05 02:14:29;;;;;;;13.40;8.25;;;4.90;99.90;;;;;;5031256;28;20067;-80
2022/01/05 02:16:56;;;;;;;15.60;9.13;;;4.80;99.90;;;;;;5031413;28;20029;-81
2022/01/05 02:19:21;;;;;;;16.85;9.40;;;4.80;99.90;;;;;;5031098;28;20026;-80
2022/01/05 02:21:47;;;;;;;15.90;9.90;;;4.80;99.90;;;;;;5031295;28;20032;-81
2022/01/05 02:24:12;;;;;;;15.23;9.80;;;4.80;99.90;;;;;;5031168;28;20025;-80
2022/01/05 02:26:40;;;;;;;18.45;9.68;;;4.80;99.90;;;;;;5031145;28;20025;-80
2022/01/05 02:29:06;;;;;;;16.85;9.07;;;4.80;99.90;;;;;;5031224;28;20124;-80
2022/01/05 02:31:32;;;;;;;10.52;7.35;;;4.80;99.90;;;;;;5032421;28;20148;-80
2022/01/05 02:33:57;;;;;;;15.77;8.15;;;4.70;99.90;;;;;;5031048;28;20017;-80
2022/01/05 02:36:23;;;;;;;13.45;8.27;;;4.70;99.90;;;;;;5030950;28;20022;-80
2022/01/05 02:38:51;;;;;;;12.25;7.78;;;4.70;99.90;;;;;;5032294;28;20049;-80
2022/01/05 02:41:16;;;;;;;12.20;8.38;;;4.70;99.90;;;;;;5030913;28;20100;-80
2022/01/05 02:43:44;;;;;;;14.80;8.38;;;4.70;99.90;;;;;;5032182;28;20506;-80
2022/01/05 02:46:12;;;;;;;12.50;8.27;;;4.70;99.90;;;;;;5030989;28;20064;-80
2022/01/05 02:48:39;;;;;;;14.35;8.50;;;4.60;99.90;;;;;;5032011;28;20036;-80
2022/01/05 02:51:05;;;;;;;17.50;8.13;;;4.60;99.90;;;;;;5030694;28;20014;-80
2022/01/05 02:53:31;;;;;;;12.02;7.90;;;4.60;99.90;;;;;;5031968;28;20040;-80
2022/01/05 02:55:57;;;;;;;13.73;7.90;;;4.60;99.90;;;;;;5031909;28;20101;-80
2022/01/05 02:58:22;;;;;;;10.38;7.28;;;4.60;99.90;;;;;;5030522;28;20524;-81
2022/01/05 03:00:48;;;;;;;13.68;7.95;;;4.50;99.90;;;;;;5030571;28;20021;-80
2022/01/05 03:03:14;;;;;;;13.82;7.85;;;4.50;99.90;;;;;;5031870;28;20071;-80
2022/01/05 03:05:40;;;;;;;14.65;8.00;;;4.50;99.90;;;;;;5030401;28;20026;-80
2022/01/05 03:08:06;;;;;;;14.80;8.45;;;4.50;99.90;;;;;;5030356;28;20036;-80
2022/01/05 03:10:31;;;;;;;11.98;8.30;;;4.50;99.90;;;;;;5031722;28;20025;-80
2022/01/05 03:12:57;;;;;;;17.80;10.52;;;4.60;99.90;;;;;;5030434;28;20106;-80
2022/01/05 03:15:22;;;;;;;15.43;9.18;;;4.60;99.90;;;;;;5031620;28;20025;-80
2022/01/05 03:17:48;;;;;;;15.48;8.85;;;4.60;99.90;;;;;;5030282;28;20021;-80
2022/01/05 03:20:17;;;;;;;14.95;9.43;;;4.50;99.90;;;;;;5030280;28;20017;-80
2022/01/05 03:22:44;;;;;;;16.60;8.90;;;4.50;99.90;;;;;;5030186;28;20079;-80
2022/01/05 03:25:15;;;;;;;18.23;10.30;;;4.50;99.90;;;;;;5030183;28;20021;-81
2022/01/05 03:27:43;;;;;;;33.60;19.27;;;4.40;99.90;;;;;;5030546;28;20072;-80
2022/01/05 03:30:11;;;;;;;24.85;15.07;;;4.40;99.90;;;;;;5029183;28;20029;-80
2022/01/05 03:32:47;;;;;;;16.58;10.30;;;4.30;99.90;;;;;;5031297;28;20028;-80
2022/01/05 03:35:13;;;;;;;19.15;9.65;;;4.30;99.90;;;;;;5031380;28;20104;-80
2022/01/05 03:37:38;;;;;;;16.20;9.40;;;4.30;99.90;;;;;;5013565;28;20459;-80
2022/01/05 03:40:04;;;;;;;20.58;9.77;;;4.30;99.90;;;;;;5013543;28;20014;-79
2022/01/05 03:42:30;;;;;;;15.40;9.80;;;4.20;99.90;;;;;;5013484;28;20025;-80
2022/01/05 03:44:56;;;;;;;13.77;9.80;;;4.20;99.90;;;;;;4993782;28;20117;-79
2022/01/05 03:47:21;;;;;;;18.00;11.02;;;4.10;99.90;;;;;;4993878;28;20362;-80
2022/01/05 03:49:47;;;;;;;20.42;11.02;;;4.10;99.90;;;;;;4993798;28;20029;-80
2022/01/05 03:52:12;;;;;;;22.98;13.18;;;4.10;99.90;;;;;;4993942;28;20022;-80
2022/01/05 03:54:38;;;;;;;25.83;13.65;;;4.10;99.90;;;;;;5011413;28;20072;-80
2022/01/05 03:57:04;;;;;;;23.05;13.18;;;4.00;99.90;;;;;;5011441;28;20026;-80
2022/01/05 03:59:29;;;;;;;23.92;12.57;;;4.00;99.90;;;;;;4993669;28;20495;-80
2022/01/05 04:01:55;;;;;;;32.85;14.27;;;3.90;99.90;;;;;;5011414;28;20109;-80
2022/01/05 04:04:21;;;;;;;50.45;20.92;;;3.90;99.90;;;;;;5015608;28;20033;-80
2022/01/05 04:06:46;;;;;;;54.35;21.95;;;3.80;99.90;;;;;;5029788;28;20142;-80
2022/01/05 04:09:12;;;;;;;126.75;38.20;;;3.80;99.90;;;;;;5031118;28;20024;-80
2022/01/05 04:11:37;;;;;;;36.85;17.02;;;3.70;99.90;;;;;;5031015;28;20049;-80
2022/01/05 04:14:04;;;;;;;25.38;11.98;;;3.50;99.90;;;;;;5029445;28;20029;-80
2022/01/05 04:16:30;;;;;;;22.95;11.82;;;3.50;99.90;;;;;;5030963;28;20018;-80
2022/01/05 04:18:55;;;;;;;27.45;14.68;;;3.40;99.90;;;;;;5030918;28;20021;-80
2022/01/05 04:21:21;;;;;;;26.67;14.15;;;3.50;99.90;;;;;;5030829;28;20026;-80
2022/01/05 04:23:46;;;;;;;20.65;10.77;;;3.40;99.90;;;;;;5029536;28;20037;-80
2022/01/05 04:26:12;;;;;;;24.83;13.27;;;3.40;99.90;;;;;;5030918;28;20097;-80
2022/01/05 04:28:38;;;;;;;27.95;12.52;;;3.30;99.90;;;;;;5029793;28;20034;-80
2022/01/05 04:31:03;;;;;;;22.80;13.68;;;3.30;99.90;;;;;;5029568;28;20056;-80
2022/01/05 04:33:29;;;;;;;24.20;13.75;;;3.40;99.90;;;;;;5030850;28;20040;-80
2022/01/05 04:35:54;;;;;;;20.15;12.70;;;3.30;99.90;;;;;;5029487;28;20034;-80
2022/01/05 04:38:20;;;;;;;19.33;11.02;;;3.30;99.90;;;;;;5029528;28;20060;-79
2022/01/05 04:40:45;;;;;;;18.38;10.73;;;3.30;99.90;;;;;;5030347;28;20387;-78
2022/01/05 04:43:11;;;;;;;28.77;15.27;;;3.20;99.90;;;;;;5034549;28;20079;-78
2022/01/05 04:45:36;;;;;;;27.45;17.63;;;3.30;99.90;;;;;;5034570;28;20139;-78
2022/01/05 04:48:03;;;;;;;26.48;14.13;;;3.20;99.90;;;;;;5033085;28;20033;-79
2022/01/05 04:50:29;;;;;;;28.92;15.43;;;3.20;99.90;;;;;;5033300;28;20493;-78
2022/01/05 04:52:54;;;;;;;28.02;14.02;;;3.30;99.90;;;;;;5033082;28;20017;-78
2022/01/05 04:55:20;;;;;;;23.60;13.63;;;3.20;99.90;;;;;;5034163;28;20029;-79
2022/01/05 04:57:45;;;;;;;26.75;13.63;;;3.20;99.90;;;;;;5034251;28;20058;-79
2022/01/05 05:00:11;;;;;;;27.25;14.13;;;3.20;99.90;;;;;;5032828;28;20376;-79
2022/01/05 05:02:37;;;;;;;26.23;14.15;;;3.20;99.90;;;;;;5032775;28;20017;-79
2022/01/05 05:05:03;;;;;;;30.25;13.93;;;3.30;99.90;;;;;;5032766;28;20025;-79
2022/01/05 05:07:28;;;;;;;32.78;14.90;;;3.30;99.90;;;;;;5032857;28;20041;-79
2022/01/05 05:09:54;;;;;;;27.92;14.88;;;3.30;99.90;;;;;;5032672;28;20116;-80
2022/01/05 05:12:19;;;;;;;31.83;15.95;;;3.30;99.90;;;;;;5032683;28;20021;-80
2022/01/05 05:14:45;;;;;;;29.40;15.60;;;3.30;99.90;;;;;;5032530;28;20029;-79
2022/01/05 05:17:11;;;;;;;49.45;23.08;;;3.30;99.90;;;;;;5032504;28;20100;-80
2022/01/05 05:19:36;;;;;;;67.75;27.08;;;3.30;99.90;;;;;;5032310;28;20030;-80
2022/01/05 05:22:02;;;;;;;45.20;18.05;;;3.30;99.90;;;;;;5033833;28;20024;-79
2022/01/05 05:24:28;;;;;;;31.20;14.63;;;3.30;99.90;;;;;;5033661;28;20033;-79
2022/01/05 05:26:53;;;;;;;31.05;15.07;;;3.30;99.90;;;;;;5033673;28;20052;-79
2022/01/05 05:29:19;;;;;;;22.95;12.98;;;3.30;99.90;;;;;;5032235;28;20036;-79
2022/01/05 05:31:44;;;;;;;33.20;15.32;;;3.30;99.90;;;;;;5033581;28;20033;-79
2022/01/05 05:34:10;;;;;;;35.33;16.98;;;3.30;99.90;;;;;;5033576;28;20033;-80
2022/01/05 05:36:35;;;;;;;38.65;16.52;;;3.40;99.90;;;;;;5032170;28;20018;-80
2022/01/05 05:39:01;;;;;;;31.60;14.63;;;3.40;99.90;;;;;;5032064;28;20493;-80
2022/01/05 05:41:26;;;;;;;26.20;13.82;;;3.50;99.90;;;;;;5033431;28;20028;-79
2022/01/05 05:43:52;;;;;;;30.27;17.23;;;3.50;99.90;;;;;;5032027;28;20075;-80
2022/01/05 05:46:19;;;;;;;33.15;17.45;;;3.50;99.90;;;;;;5033681;28;20030;-80
2022/01/05 05:48:44;;;;;;;32.03;17.88;;;3.50;99.90;;;;;;5031835;28;20036;-80
2022/01/05 05:51:10;;;;;;;30.08;17.33;;;3.60;99.90;;;;;;5031947;28;20025;-80
2022/01/05 05:53:35;;;;;;;31.48;16.40;;;3.60;99.90;;;;;;5032589;28;20056;-80
2022/01/05 05:56:01;;;;;;;35.97;16.73;;;3.50;99.90;;;;;;5033147;28;20021;-80
2022/01/05 05:58:26;;;;;;;37.53;18.83;;;3.50;99.90;;;;;;5031833;28;20041;-80
2022/01/05 06:00:52;;;;;;;43.75;20.85;;;3.60;99.90;;;;;;5031626;28;20390;-79
2022/01/05 06:03:17;;;;;;;47.35;22.05;;;3.60;99.90;;;;;;5031650;28;20059;-80
2022/01/05 06:05:43;;;;;;;70.05;28.70;;;3.60;99.90;;;;;;5031533;28;20021;-80
2022/01/05 06:08:09;;;;;;;59.38;25.17;;;3.60;99.90;;;;;;5032799;28;20531;-80
2022/01/05 06:10:34;;;;;;;49.45;23.58;;;3.60;99.90;;;;;;5031559;28;20026;-80
2022/01/05 06:13:00;;;;;;;44.85;21.35;;;3.60;99.90;;;;;;5031572;28;20075;-80
2022/01/05 06:15:25;;;;;;;47.83;20.85;;;3.60;99.90;;;;;;5031363;28;20028;-79
2022/01/05 06:17:51;;;;;;;45.83;20.77;;;3.60;99.90;;;;;;5032907;28;20025;-79
2022/01/05 06:20:17;;;;;;;40.60;20.30;;;3.60;99.90;;;;;;5031021;28;20068;-80
2022/01/05 06:22:43;;;;;;;52.30;27.33;;;3.60;99.90;;;;;;5014290;28;20022;-78
2022/01/05 06:25:10;;;;;;;51.97;21.27;;;3.70;99.90;;;;;;5012317;28;20365;-80
2022/01/05 06:27:36;;;;;;;43.83;18.67;;;3.70;99.90;;;;;;5030827;28;20048;-79
2022/01/05 06:30:06;;;;;;;39.28;18.05;;;3.60;99.90;;;;;;5013587;28;20113;-79
2022/01/05 06:32:33;;;;;;;30.73;16.08;;;3.50;99.90;;;;;;5016714;28;20025;-80
2022/01/05 06:35:00;;;;;;;53.45;22.45;;;3.40;99.90;;;;;;5027786;28;20025;-79
2022/01/05 06:37:26;;;;;;;61.10;26.35;;;3.40;99.90;;;;;;5022815;28;20109;-80
2022/01/05 06:39:51;;;;;;;48.60;19.85;;;3.40;99.90;;;;;;5026807;28;20116;-79
2022/01/05 06:42:17;;;;;;;58.92;24.23;;;3.40;99.90;;;;;;5030279;28;20048;-79
2022/01/05 06:44:42;;;;;;;55.60;26.17;;;3.40;99.90;;;;;;5022042;28;20072;-79
2022/01/05 06:47:10;;;;;;;50.03;23.45;;;3.40;99.90;;;;;;5019811;28;20048;-79
2022/01/05 06:49:35;;;;;;;51.30;25.42;;;3.40;99.90;;;;;;5029011;28;20029;-80
2022/01/05 06:52:01;;;;;;;60.53;27.88;;;3.50;99.90;;;;;;5015410;28;20028;-79
2022/01/05 06:54:27;;;;;;;58.15;26.55;;;3.50;99.90;;;;;;5027039;28;20488;-79
2022/01/05 06:56:52;;;;;;;56.08;25.17;;;3.50;99.90;;;;;;5014790;28;20021;-79
2022/01/05 06:59:18;;;;;;;76.63;33.47;;;3.50;99.90;;;;;;5016113;28;20030;-79
2022/01/05 07:01:43;;;;;;;154.43;59.00;;;3.50;99.90;;;;;;5027700;28;20022;-80
2022/01/05 07:04:09;;;;;;;187.77;57.97;;;3.50;99.90;;;;;;5016499;28;20018;-79
2022/01/05 07:06:34;;;;;;;132.32;50.47;;;3.50;99.90;;;;;;5027518;28;20040;-79
2022/01/05 07:09:00;;;;;;;82.45;32.45;;;3.50;99.90;;;;;;5028149;28;20037;-78
2022/01/05 07:11:25;;;;;;;104.00;38.55;;;3.50;99.90;;;;;;5013604;28;20455;-80
2022/01/05 07:13:51;;;;;;;97.93;36.22;;;3.60;99.90;;;;;;5022556;28;20037;-80
2022/01/05 07:16:17;;;;;;;143.00;52.63;;;3.60;99.90;;;;;;5017513;28;20025;-80
2022/01/05 07:18:42;;;;;;;320.58;114.13;;;3.60;99.90;;;;;;5016597;28;20010;-79
2022/01/05 07:21:08;;;;;;;310.10;117.88;;;3.60;99.90;;;;;;5028257;28;20459;-79
2022/01/05 07:23:34;;;;;;;262.00;93.43;;;3.60;99.90;;;;;;5026937;28;20029;-79
2022/01/05 07:25:59;;;;;;;180.38;66.78;;;3.60;99.90;;;;;;5019623;28;20037;-79
2022/01/05 07:28:25;;;;;;;216.23;81.70;;;3.60;99.90;;;;;;5017947;28;20466;-79
2022/01/05 07:30:50;;;;;;;205.75;82.82;;;3.60;99.90;;;;;;5027890;28;20047;-79
2022/01/05 07:33:16;;;;;;;184.82;75.45;;;3.70;99.90;;;;;;5011354;28;20037;-79
2022/01/05 07:35:42;;;;;;;115.70;47.60;;;3.70;99.90;;;;;;5015529;28;20171;-79
2022/01/05 07:38:07;;;;;;;93.75;38.17;;;3.70;99.90;;;;;;5014376;28;20048;-80
2022/01/05 07:40:33;;;;;;;94.55;41.20;;;3.70;99.90;;;;;;5025741;28;20041;-79
2022/01/05 07:42:58;;;;;;;85.72;40.92;;;3.80;99.90;;;;;;5009331;28;20275;-79
2022/01/05 07:45:24;;;;;;;83.25;35.58;;;3.80;99.90;;;;;;5009373;28;20105;-79
2022/01/05 07:47:50;;;;;;;73.95;35.40;;;3.80;99.90;;;;;;5026130;28;20500;-79
2022/01/05 07:50:15;;;;;;;64.57;31.25;;;3.80;99.90;;;;;;5011514;28;20038;-79
2022/01/05 07:52:47;;;;;;;66.30;31.20;;;3.90;99.90;;;;;;5010355;28;20045;-79
2022/01/05 07:55:13;;;;;;;140.75;71.13;;;3.90;99.90;;;;;;5027945;28;20033;-79
2022/01/05 07:57:39;;;;;;;127.18;62.78;;;3.90;99.90;;;;;;5027559;28;20017;-79
2022/01/05 08:00:07;;;;;;;91.47;46.85;;;3.90;99.90;;;;;;5027753;28;20026;-78
2022/01/05 08:02:32;;;;;;;114.38;51.10;;;3.90;99.90;;;;;;5008060;28;20652;-79
2022/01/05 08:04:58;;;;;;;111.00;49.80;;;4.00;99.90;;;;;;5028660;28;20101;-79
2022/01/05 08:07:23;;;;;;;93.90;43.20;;;4.00;99.90;;;;;;5010296;28;20099;-79
2022/01/05 08:09:49;;;;;;;98.82;43.83;;;4.00;99.90;;;;;;5028203;28;20391;-79
2022/01/05 08:12:15;;;;;;;92.60;39.50;;;4.00;99.90;;;;;;5010466;28;20449;-79
2022/01/05 08:14:40;;;;;;;104.15;48.85;;;4.00;99.90;;;;;;5010186;28;20045;-79
2022/01/05 08:17:06;;;;;;;114.00;54.90;;;4.00;99.90;;;;;;5031244;28;20049;-79
2022/01/05 08:19:32;;;;;;;85.85;47.25;;;4.00;99.90;;;;;;5031773;28;20172;-80
2022/01/05 08:21:57;;;;;;;87.53;45.47;;;4.10;99.90;;;;;;5014381;28;20029;-79
2022/01/05 08:24:23;;;;;;;101.88;50.38;;;4.10;99.90;;;;;;5031979;28;20025;-80
2022/01/05 08:26:48;;;;;;;88.35;44.78;;;4.10;99.90;;;;;;5032047;28;20045;-79
2022/01/05 08:29:14;;;;;;;106.43;48.08;;;4.10;99.90;;;;;;5031914;28;20569;-79
2022/01/05 08:31:40;;;;;;;98.47;43.97;;;4.10;99.90;;;;;;5013233;28;20108;-80
2022/01/05 08:34:05;;;;;;;82.15;41.08;;;4.10;99.90;;;;;;5015063;28;20025;-84
2022/01/05 08:36:31;;;;;;;72.28;35.58;;;4.10;99.90;;;;;;5032948;28;20022;-75
2022/01/05 08:38:56;;;;;;;91.50;43.10;;;4.10;99.90;;;;;;5030565;28;20072;-76
2022/01/05 08:41:22;;;;;;;74.30;39.78;;;4.10;99.90;;;;;;5032032;28;20036;-77
2022/01/05 08:43:48;;;;;;;76.53;35.83;;;4.10;99.90;;;;;;5013862;28;20029;-76
2022/01/05 08:46:13;;;;;;;59.05;29.83;;;4.10;99.90;;;;;;5014110;28;20037;-75
2022/01/05 08:48:41;;;;;;;56.60;28.52;;;4.10;99.90;;;;;;5014190;28;20040;-76
2022/01/05 08:51:06;;;;;;;46.80;24.15;;;4.10;99.90;;;;;;5032454;28;20026;-76
2022/01/05 08:53:32;;;;;;;51.97;28.42;;;4.10;99.90;;;;;;5014610;28;20021;-77
2022/01/05 08:55:58;;;;;;;46.75;24.73;;;4.10;99.90;;;;;;5031926;28;20060;-77
2022/01/05 08:58:23;;;;;;;44.03;23.20;;;4.10;99.90;;;;;;5031740;28;20030;-76
2022/01/05 09:00:49;;;;;;;44.70;24.50;;;4.10;99.90;;;;;;5031939;28;20033;-77
2022/01/05 09:03:16;;;;;;;50.53;26.05;;;4.20;99.90;;;;;;5032374;28;20030;-77
2022/01/05 09:05:42;;;;;;;49.47;25.88;;;4.20;99.90;;;;;;5031750;28;20025;-77
2022/01/05 09:08:08;;;;;;;70.28;29.27;;;4.20;99.90;;;;;;5012591;28;20519;-77
2022/01/05 09:10:34;;;;;;;49.05;23.70;;;4.20;99.90;;;;;;5030782;28;20026;-76
2022/01/05 09:13:00;;;;;;;38.08;20.27;;;4.20;99.90;;;;;;5012779;28;20033;-77
2022/01/05 09:15:26;;;;;;;40.63;20.95;;;4.20;99.90;;;;;;5012739;28;20463;-77
2022/01/05 09:17:52;;;;;;;34.92;18.20;;;4.20;99.90;;;;;;5031151;28;20033;-77
2022/01/05 09:20:18;;;;;;;36.53;20.38;;;4.20;99.90;;;;;;5027502;28;20057;-77
2022/01/05 09:22:43;;;;;;;36.00;18.15;;;4.20;99.90;;;;;;5031867;28;20064;-77
2022/01/05 09:25:11;;;;;;;37.92;18.55;;;4.20;99.90;;;;;;5012584;28;20391;-77
2022/01/05 09:27:37;;;;;;;39.92;19.80;;;4.20;99.90;;;;;;5012175;28;20684;-76
2022/01/05 09:30:09;;;;;;;38.03;20.27;;;4.30;99.90;;;;;;5031459;28;20018;-76
2022/01/05 09:32:36;;;;;;;35.40;18.20;;;4.30;99.90;;;;;;5013909;28;20379;-76
2022/01/05 09:35:03;;;;;;;34.38;19.85;;;4.30;99.90;;;;;;5013693;28;20033;-77
2022/01/05 09:37:34;;;;;;;42.10;18.88;;;4.30;99.90;;;;;;5012815;28;20017;-77
2022/01/05 09:42:45;;;;;;;29.75;16.50;;;4.30;99.90;;;;;;5027570;28;20553;-76
2022/01/05 09:45:23;;;;;;;32.85;16.85;;;4.20;99.90;;;;;;5009375;28;20049;-76
2022/01/05 09:48:15;;;;;;;29.73;16.95;;;4.20;99.90;;;;;;5028415;28;20041;-77
2022/01/05 09:50:48;;;;;;;29.83;15.57;;;4.20;99.90;;;;;;5011447;28;20033;-77
2022/01/05 09:53:14;;;;;;;25.95;15.25;;;4.20;99.90;;;;;;5026296;28;20018;-76
2022/01/05 09:55:40;;;;;;;30.15;14.80;;;4.20;99.90;;;;;;5011175;28;20577;-76
2022/01/05 09:58:06;;;;;;;28.45;14.75;;;4.20;99.90;;;;;;5012667;28;20649;-77
2022/01/05 10:00:31;;;;;;;29.90;15.52;;;4.20;99.90;;;;;;5012106;28;20060;-75
2022/01/05 10:02:57;;;;;;;25.63;13.73;;;4.20;99.90;;;;;;5012888;28;20112;-76
2022/01/05 10:05:24;;;;;;;27.15;14.00;;;4.20;99.90;;;;;;5030301;28;20542;-76
2022/01/05 10:07:50;;;;;;;31.88;14.85;;;4.30;99.90;;;;;;5030057;28;20557;-77
2022/01/05 10:10:15;;;;;;;32.70;15.70;;;4.30;99.90;;;;;;5011894;28;20030;-76
2022/01/05 10:12:41;;;;;;;25.88;12.95;;;4.30;99.90;;;;;;5012063;28;20029;-76
2022/01/05 10:15:07;;;;;;;26.88;13.68;;;4.30;99.90;;;;;;5030376;28;20026;-76
2022/01/05 10:17:33;;;;;;;27.55;12.15;;;4.30;99.90;;;;;;5012241;28;20499;-76
2022/01/05 10:20:05;;;;;;;31.60;12.27;;;4.40;99.90;;;;;;5012848;28;20031;-76
2022/01/05 10:22:37;;;;;;;23.30;12.85;;;4.30;99.90;;;;;;5029222;28;20379;-75
2022/01/05 10:25:16;;;;;;;27.25;12.80;;;4.40;99.90;;;;;;5010633;28;20030;-75
2022/01/05 10:27:45;;;;;;;25.70;12.93;;;4.40;99.90;;;;;;5014081;28;20383;-75
2022/01/05 10:30:14;;;;;;;56.22;26.83;;;4.50;99.90;;;;;;5016652;28;20076;-75
2022/01/05 10:32:44;;;;;;;39.13;19.27;;;4.40;99.90;;;;;;5031659;28;20025;-75
2022/01/05 10:35:12;;;;;;;20.98;12.45;;;4.40;99.90;;;;;;5031956;28;20029;-75
2022/01/05 10:37:42;;;;;;;22.17;11.70;;;4.40;99.90;;;;;;5030860;28;20025;-76
2022/01/05 10:40:18;;;;;;;26.40;14.00;;;4.40;99.90;;;;;;5028955;28;20048;-75
2022/01/05 10:42:44;;;;;;;29.48;15.75;;;4.40;99.90;;;;;;5030213;28;20532;-75
2022/01/05 10:45:14;;;;;;;20.15;11.05;;;4.50;99.90;;;;;;5031346;28;20045;-75
2022/01/05 10:47:41;;;;;;;35.47;16.50;;;4.40;99.90;;;;;;5032885;28;20044;-75
2022/01/05 10:50:11;;;;;;;25.65;13.10;;;4.40;99.90;;;;;;5051411;28;20071;-75
2022/01/05 10:52:37;;;;;;;24.23;12.20;;;4.40;99.90;;;;;;5033415;28;20133;-75
2022/01/05 10:55:11;;;;;;;22.05;11.98;;;4.40;99.90;;;;;;5050394;28;20033;-75
2022/01/05 10:57:36;;;;;;;30.92;12.40;;;4.40;99.90;;;;;;5031747;28;20122;-75
2022/01/05 11:00:07;;;;;;;22.92;12.32;;;4.40;99.90;;;;;;5049951;28;20060;-75
2022/01/05 11:02:35;;;;;;;26.98;14.57;;;4.40;99.90;;;;;;5031815;28;20029;-76
2022/01/05 11:05:09;;;;;;;24.35;14.43;;;4.50;99.90;;;;;;5045295;28;20064;-75
2022/01/05 11:07:41;;;;;;;30.50;17.35;;;4.40;99.90;;;;;;5030130;28;20065;-75
2022/01/05 11:10:10;;;;;;;33.40;16.63;;;4.40;99.90;;;;;;5029616;28;20061;-75
2022/01/05 11:12:38;;;;;;;40.25;21.23;;;4.50;99.90;;;;;;5029760;28;20045;-75
2022/01/05 11:15:25;;;;;;;37.75;19.75;;;4.50;99.90;;;;;;5031072;28;20065;-75
2022/01/05 11:18:11;;;;;;;36.08;19.98;;;4.50;99.90;;;;;;5011655;28;20026;-75
2022/01/05 11:20:42;;;;;;;38.38;21.10;;;4.50;99.90;;;;;;5010821;28;20122;-75
2022/01/05 11:23:09;;;;;;;36.15;20.70;;;4.60;99.90;;;;;;4993185;28;20022;-75
2022/01/05 11:25:36;;;;;;;38.25;20.45;;;4.50;99.90;;;;;;4993293;28;20123;-75
2022/01/05 11:28:04;;;;;;;34.35;18.42;;;4.60;99.90;;;;;;5011293;28;20079;-76
2022/01/05 11:30:30;;;;;;;38.40;21.63;;;4.60;99.90;;;;;;5010951;28;20116;-76
2022/01/05 11:32:56;;;;;;;35.15;22.15;;;4.60;99.90;;;;;;4993693;28;20432;-76
2022/01/05 11:35:22;;;;;;;35.53;19.08;;;4.70;99.90;;;;;;4993179;28;20576;-76
2022/01/05 11:37:48;;;;;;;36.78;20.17;;;4.60;99.90;;;;;;4992866;28;20391;-76
2022/01/05 11:40:16;;;;;;;29.13;17.08;;;4.60;99.90;;;;;;4993307;28;20113;-76
2022/01/05 11:42:45;;;;;;;31.45;19.05;;;4.60;99.90;;;;;;5010473;28;20113;-76
2022/01/05 11:45:11;;;;;;;32.88;20.13;;;4.60;99.90;;;;;;4994394;28;20029;-75
2022/01/05 11:47:39;;;;;;;24.20;15.02;;;4.60;99.90;;;;;;5030525;28;20177;-76
2022/01/05 11:50:14;;;;;;;27.02;15.65;;;4.50;99.90;;;;;;5048744;28;20021;-76
2022/01/05 11:52:59;;;;;;;24.05;15.00;;;4.50;99.90;;;;;;5031188;28;20710;-76
2022/01/05 11:55:26;;;;;;;27.90;16.55;;;4.60;99.90;;;;;;5050275;28;20033;-76
2022/01/05 11:58:12;;;;;;;26.25;14.93;;;4.60;99.90;;;;;;5032644;28;20026;-75
2022/01/05 12:00:38;;;;;;;26.35;14.43;;;4.60;99.90;;;;;;5032163;28;20041;-76
2022/01/05 12:03:04;;;;;;;27.75;15.15;;;4.50;99.90;;;;;;5050593;28;20493;-76
2022/01/05 12:06:05;;;;;;;24.58;15.82;;;4.60;99.90;;;;;;5049988;28;20539;-75
2022/01/05 12:08:49;;;;;;;25.42;13.68;;;4.60;99.90;;;;;;5049643;28;20509;-75
2022/01/05 12:11:42;;;;;;;25.50;15.23;;;4.50;99.90;;;;;;5050465;28;20120;-75
2022/01/05 12:14:20;;;;;;;22.02;13.50;;;4.50;99.90;;;;;;5032622;28;20025;-75
2022/01/05 12:17:01;;;;;;;24.42;15.27;;;4.60;99.90;;;;;;5019932;28;20506;-75
2022/01/05 12:19:46;;;;;;;23.50;13.65;;;4.60;99.90;;;;;;5012427;28;20026;-75
2022/01/05 12:22:20;;;;;;;22.50;13.15;;;4.60;99.90;;;;;;5028635;28;20508;-75
2022/01/05 12:25:04;;;;;;;24.08;14.32;;;4.50;99.90;;;;;;5012595;28;20498;-75
2022/01/05 12:27:35;;;;;;;33.05;17.42;;;4.50;99.90;;;;;;5029798;28;20056;-76
2022/01/05 12:30:23;;;;;;;26.85;15.63;;;4.50;99.90;;;;;;5030334;28;20084;-76
2022/01/05 12:33:04;;;;;;;25.88;15.23;;;4.40;99.90;;;;;;5002207;28;20037;-75
2022/01/05 12:35:51;;;;;;;26.20;15.02;;;4.50;99.90;;;;;;5012260;28;20022;-76
2022/01/05 12:38:45;;;;;;;30.60;18.02;;;4.50;99.90;;;;;;5029816;28;20027;-76
2022/01/05 12:41:36;;;;;;;25.67;14.75;;;4.50;99.90;;;;;;5012282;28;20164;-76